createdAt,value
2022-10-26T00:00:25.933Z,7.50
2022-10-26T00:01:27.406Z,8.32
2022-10-26T00:02:29.792Z,6.65
2022-10-26T00:03:31.159Z,9.13
2022-10-26T00:04:36.419Z,8.82
2022-10-26T00:05:38.773Z,6.30
2022-10-26T00:06:40.326Z,7.95
2022-10-26T00:07:42.698Z,6.80
2022-10-26T00:08:44.642Z,6.55
2022-10-26T00:09:45.890Z,6.95
2022-10-26T00:10:47.394Z,5.95
2022-10-26T00:11:49.011Z,7.53
2022-10-26T00:12:51.384Z,7.43
2022-10-26T00:13:53.380Z,7.32
2022-10-26T00:14:55.837Z,8.93
2022-10-26T00:15:57.735Z,10.52
2022-10-26T00:17:01.278Z,6.63
2022-10-26T00:18:06.285Z,7.35
2022-10-26T00:19:09.914Z,7.43
2022-10-26T00:20:11.887Z,9.60
2022-10-26T00:21:13.401Z,8.07
2022-10-26T00:22:14.734Z,6.75
2022-10-26T00:23:16.019Z,10.18
2022-10-26T00:25:20.065Z,6.80
2022-10-26T00:26:21.436Z,8.40
2022-10-26T00:27:26.683Z,8.43
2022-10-26T00:28:28.745Z,5.88
2022-10-26T00:29:30.610Z,7.75
2022-10-26T00:30:32.517Z,6.97
2022-10-26T00:31:34.678Z,7.68
2022-10-26T00:32:36.714Z,7.40
2022-10-26T00:33:41.190Z,9.00
2022-10-26T00:34:44.405Z,8.75
2022-10-26T00:36:05.440Z,6.63
2022-10-26T00:37:08.443Z,9.27
2022-10-26T00:38:11.153Z,7.40
2022-10-26T00:39:13.837Z,7.18
2022-10-26T00:40:16.938Z,7.65
2022-10-26T00:41:19.759Z,6.97
2022-10-26T00:42:26.530Z,8.98
2022-10-26T00:43:30.992Z,7.78
2022-10-26T00:44:58.238Z,5.93
2022-10-26T00:46:03.959Z,5.63
2022-10-26T00:47:06.312Z,8.18
2022-10-26T00:48:13.166Z,9.88
2022-10-26T00:49:16.858Z,8.07
2022-10-26T00:50:20.315Z,9.05
2022-10-26T00:51:41.235Z,6.50
2022-10-26T00:52:45.835Z,8.45
2022-10-26T00:53:49.197Z,8.55
2022-10-26T00:54:52.013Z,7.30
2022-10-26T00:55:54.319Z,7.72
2022-10-26T00:56:56.486Z,6.43
2022-10-26T00:58:02.250Z,8.13
2022-10-26T00:59:06.830Z,6.82
2022-10-26T01:00:10.566Z,6.63
2022-10-26T01:01:14.968Z,8.50
2022-10-26T01:02:17.679Z,7.63
2022-10-26T01:03:20.207Z,5.82
2022-10-26T01:04:23.002Z,7.80
2022-10-26T01:05:24.330Z,6.78
2022-10-26T01:06:28.924Z,6.88
2022-10-26T01:07:30.650Z,7.55
2022-10-26T01:08:35.290Z,9.15
2022-10-26T01:09:37.438Z,8.02
2022-10-26T01:10:41.715Z,5.88
2022-10-26T01:11:45.339Z,7.03
2022-10-26T01:12:47.099Z,6.10
2022-10-26T01:13:50.664Z,6.63
2022-10-26T01:14:53.746Z,5.88
2022-10-26T01:16:02.173Z,7.50
2022-10-26T01:17:22.744Z,8.43
2022-10-26T01:18:45.243Z,7.22
2022-10-26T01:20:07.369Z,6.30
2022-10-26T01:21:31.494Z,5.88
2022-10-26T01:22:53.548Z,6.32
2022-10-26T01:24:16.404Z,6.45
2022-10-26T01:25:36.107Z,8.38
2022-10-26T01:26:57.498Z,8.25
2022-10-26T01:28:02.765Z,5.90
2022-10-26T01:29:15.022Z,6.93
2022-10-26T01:30:18.189Z,6.18
2022-10-26T01:31:28.440Z,6.30
2022-10-26T01:32:48.433Z,6.45
2022-10-26T01:33:54.774Z,6.28
2022-10-26T01:35:01.309Z,5.90
2022-10-26T01:36:22.013Z,6.57
2022-10-26T01:37:26.579Z,6.63
2022-10-26T01:38:48.107Z,5.72
2022-10-26T01:39:53.818Z,5.82
2022-10-26T01:41:25.901Z,6.28
2022-10-26T01:42:29.856Z,4.63
2022-10-26T01:43:33.688Z,6.60
2022-10-26T01:44:41.747Z,4.32
2022-10-26T01:45:44.621Z,4.55
2022-10-26T01:46:48.413Z,5.38
2022-10-26T01:47:50.104Z,4.95
2022-10-26T01:48:53.977Z,4.75
2022-10-26T01:49:58.783Z,5.82
2022-10-26T01:51:01.899Z,6.50
2022-10-26T01:52:05.597Z,6.88
2022-10-26T01:53:07.195Z,5.57
2022-10-26T01:54:09.944Z,5.63
2022-10-26T01:55:31.913Z,6.07
2022-10-26T01:56:36.785Z,5.55
2022-10-26T01:57:38.516Z,6.28
2022-10-26T01:58:58.396Z,5.72
2022-10-26T02:00:05.342Z,7.85
2022-10-26T02:01:16.562Z,4.85
2022-10-26T02:02:39.431Z,5.45
2022-10-26T02:03:41.657Z,5.65
2022-10-26T02:05:04.847Z,4.70
2022-10-26T02:06:41.805Z,6.30
2022-10-26T02:08:01.751Z,5.68
2022-10-26T02:09:03.482Z,5.38
2022-10-26T02:10:17.038Z,5.85
2022-10-26T02:11:26.879Z,6.47
2022-10-26T02:12:49.103Z,4.78
2022-10-26T02:14:00.890Z,7.00
2022-10-26T02:15:09.315Z,5.13
2022-10-26T02:16:28.777Z,4.57
2022-10-26T02:17:52.609Z,5.23
2022-10-26T02:19:11.621Z,5.88
2022-10-26T02:20:17.395Z,5.65
2022-10-26T02:21:28.871Z,5.28
2022-10-26T02:22:34.073Z,6.93
2022-10-26T02:23:37.375Z,5.82
2022-10-26T02:24:40.056Z,6.03
2022-10-26T02:25:45.807Z,5.97
2022-10-26T02:26:50.407Z,4.45
2022-10-26T02:27:56.682Z,6.28
2022-10-26T02:29:02.771Z,5.78
2022-10-26T02:30:05.686Z,5.50
2022-10-26T02:31:08.210Z,6.82
2022-10-26T02:32:13.315Z,6.10
2022-10-26T02:33:15.985Z,5.63
2022-10-26T02:34:20.996Z,6.18
2022-10-26T02:35:25.804Z,6.00
2022-10-26T02:36:30.706Z,7.63
2022-10-26T02:37:34.253Z,7.80
2022-10-26T02:38:37.546Z,6.72
2022-10-26T02:39:42.027Z,6.57
2022-10-26T02:40:45.405Z,4.90
2022-10-26T02:41:48.113Z,5.95
2022-10-26T02:42:54.900Z,7.85
2022-10-26T02:44:04.410Z,8.00
2022-10-26T02:45:10.355Z,8.73
2022-10-26T02:46:16.051Z,6.25
2022-10-26T02:47:20.671Z,6.47
2022-10-26T02:48:25.943Z,4.90
2022-10-26T02:49:29.802Z,4.72
2022-10-26T02:50:43.431Z,4.80
2022-10-26T02:52:05.851Z,5.10
2022-10-26T02:53:12.330Z,5.85
2022-10-26T02:54:24.472Z,6.57
2022-10-26T02:55:28.527Z,6.10
2022-10-26T02:56:36.349Z,6.18
2022-10-26T02:57:40.398Z,8.10
2022-10-26T02:58:46.440Z,8.20
2022-10-26T02:59:49.203Z,9.35
2022-10-26T03:00:52.003Z,8.48
2022-10-26T03:01:57.236Z,10.30
2022-10-26T03:02:59.846Z,5.97
2022-10-26T03:04:01.706Z,6.10
2022-10-26T03:05:13.153Z,8.95
2022-10-26T03:06:23.474Z,6.68
2022-10-26T03:07:26.161Z,9.45
2022-10-26T03:09:30.472Z,5.72
2022-10-26T03:10:33.440Z,6.22
2022-10-26T03:11:37.519Z,6.38
2022-10-26T03:12:39.447Z,6.50
2022-10-26T03:13:41.855Z,5.67
2022-10-26T03:14:45.876Z,5.38
2022-10-26T03:15:50.641Z,5.50
2022-10-26T03:16:53.648Z,6.00
2022-10-26T03:17:56.013Z,5.00
2022-10-26T03:18:57.337Z,7.25
2022-10-26T03:20:00.449Z,6.20
2022-10-26T03:21:02.459Z,6.38
2022-10-26T03:22:04.450Z,5.75
2022-10-26T03:23:06.538Z,6.45
2022-10-26T03:24:09.413Z,5.57
2022-10-26T03:25:10.682Z,6.28
2022-10-26T03:26:13.349Z,5.90
2022-10-26T03:27:15.490Z,6.35
2022-10-26T03:28:18.219Z,7.00
2022-10-26T03:29:20.593Z,6.20
2022-10-26T03:30:22.660Z,5.78
2022-10-26T03:31:24.262Z,5.72
2022-10-26T03:32:28.669Z,5.45
2022-10-26T03:33:30.560Z,4.35
2022-10-26T03:34:33.059Z,6.13
2022-10-26T03:35:37.838Z,5.82
2022-10-26T03:36:39.406Z,6.43
2022-10-26T03:37:41.414Z,6.32
2022-10-26T03:38:44.015Z,5.50
2022-10-26T03:39:45.814Z,6.05
2022-10-26T03:40:48.560Z,5.68
2022-10-26T03:41:50.950Z,6.57
2022-10-26T03:42:53.502Z,8.52
2022-10-26T03:43:55.445Z,6.47
2022-10-26T03:44:58.013Z,5.95
2022-10-26T03:46:01.743Z,5.72
2022-10-26T03:47:03.496Z,7.03
2022-10-26T03:48:10.502Z,7.38
2022-10-26T03:49:15.727Z,6.00
2022-10-26T03:50:18.885Z,5.70
2022-10-26T03:51:24.638Z,5.78
2022-10-26T03:52:25.922Z,6.97
2022-10-26T03:53:28.822Z,6.37
2022-10-26T03:54:30.550Z,6.47
2022-10-26T03:55:33.364Z,7.15
2022-10-26T03:56:35.424Z,8.05
2022-10-26T03:57:46.972Z,7.50
2022-10-26T03:58:48.565Z,6.97
2022-10-26T03:59:50.591Z,6.10
2022-10-26T04:00:52.494Z,5.13
2022-10-26T04:01:57.665Z,5.53
2022-10-26T04:03:00.280Z,6.50
2022-10-26T04:04:02.798Z,8.35
2022-10-26T04:05:06.682Z,7.70
2022-10-26T04:06:09.556Z,7.85
2022-10-26T04:07:13.519Z,5.95
2022-10-26T04:08:18.243Z,7.38
2022-10-26T04:09:20.820Z,7.63
2022-10-26T04:10:25.403Z,6.57
2022-10-26T04:11:29.582Z,6.65
2022-10-26T04:12:34.443Z,6.53
2022-10-26T04:13:36.832Z,7.90
2022-10-26T04:14:38.079Z,6.65
2022-10-26T04:15:39.500Z,6.75
2022-10-26T04:16:42.076Z,9.77
2022-10-26T04:17:48.208Z,8.68
2022-10-26T04:18:52.088Z,7.90
2022-10-26T04:19:53.520Z,8.90
2022-10-26T04:20:55.939Z,6.93
2022-10-26T04:21:57.578Z,7.93
2022-10-26T04:23:04.488Z,8.48
2022-10-26T04:24:07.387Z,8.25
2022-10-26T04:25:09.154Z,6.93
2022-10-26T04:26:10.466Z,8.85
2022-10-26T04:27:13.368Z,9.45
2022-10-26T04:28:16.503Z,10.13
2022-10-26T04:29:19.199Z,7.72
2022-10-26T04:30:22.514Z,10.15
2022-10-26T04:31:23.902Z,8.98
2022-10-26T04:32:26.707Z,9.70
2022-10-26T04:33:28.778Z,8.32
2022-10-26T04:34:30.146Z,7.00
2022-10-26T04:35:31.850Z,8.15
2022-10-26T04:36:34.511Z,6.72
2022-10-26T04:37:38.099Z,9.15
2022-10-26T04:38:39.460Z,5.57
2022-10-26T04:39:41.971Z,7.93
2022-10-26T04:40:45.505Z,7.57
2022-10-26T04:41:50.883Z,7.15
2022-10-26T04:42:53.025Z,6.73
2022-10-26T04:43:59.391Z,9.93
2022-10-26T04:45:00.710Z,7.82
2022-10-26T04:46:03.111Z,7.03
2022-10-26T04:47:07.331Z,6.70
2022-10-26T04:48:13.825Z,11.75
2022-10-26T04:49:15.650Z,6.03
2022-10-26T04:50:17.314Z,7.75
2022-10-26T04:51:18.774Z,6.95
2022-10-26T04:52:20.582Z,6.85
2022-10-26T04:53:23.271Z,6.57
2022-10-26T04:54:25.478Z,7.68
2022-10-26T04:55:27.971Z,6.93
2022-10-26T04:56:29.751Z,5.90
2022-10-26T04:57:37.995Z,9.13
2022-10-26T04:58:39.471Z,6.38
2022-10-26T04:59:41.835Z,6.47
2022-10-26T05:00:46.094Z,8.05
2022-10-26T05:01:49.899Z,8.18
2022-10-26T05:02:51.510Z,8.10
2022-10-26T05:03:54.117Z,7.75
2022-10-26T05:04:58.258Z,8.63
2022-10-26T05:06:00.571Z,7.60
2022-10-26T05:07:03.197Z,5.93
2022-10-26T05:08:09.381Z,7.18
2022-10-26T05:09:11.611Z,6.57
2022-10-26T05:10:14.458Z,6.70
2022-10-26T05:11:16.642Z,6.45
2022-10-26T05:12:18.668Z,5.63
2022-10-26T05:13:24.621Z,6.57
2022-10-26T05:14:27.090Z,5.93
2022-10-26T05:15:28.823Z,5.78
2022-10-26T05:16:34.561Z,5.65
2022-10-26T05:17:38.931Z,6.50
2022-10-26T05:18:41.857Z,5.63
2022-10-26T05:19:46.518Z,7.65
2022-10-26T05:20:50.395Z,6.50
2022-10-26T05:21:53.667Z,7.45
2022-10-26T05:22:56.785Z,6.78
2022-10-26T05:23:58.492Z,6.78
2022-10-26T05:25:01.126Z,6.40
2022-10-26T05:26:02.632Z,7.07
2022-10-26T05:27:04.441Z,6.47
2022-10-26T05:28:10.822Z,7.30
2022-10-26T05:29:13.296Z,8.23
2022-10-26T05:30:17.542Z,7.70
2022-10-26T05:31:20.709Z,7.07
2022-10-26T05:32:22.850Z,5.65
2022-10-26T05:33:24.613Z,7.75
2022-10-26T05:34:29.106Z,6.80
2022-10-26T05:35:32.989Z,7.15
2022-10-26T05:36:35.807Z,6.60
2022-10-26T05:37:37.620Z,6.63
2022-10-26T05:38:40.111Z,6.93
2022-10-26T05:39:44.807Z,5.85
2022-10-26T05:40:54.594Z,6.47
2022-10-26T05:41:56.520Z,6.65
2022-10-26T05:43:02.590Z,7.82
2022-10-26T05:44:04.904Z,5.72
2022-10-26T05:45:06.800Z,7.80
2022-10-26T05:46:10.786Z,7.55
2022-10-26T05:47:13.259Z,8.38
2022-10-26T05:48:15.621Z,5.90
2022-10-26T05:49:18.305Z,11.80
2022-10-26T05:50:20.575Z,6.00
2022-10-26T05:51:23.865Z,6.22
2022-10-26T05:52:25.247Z,7.10
2022-10-26T05:53:30.279Z,7.57
2022-10-26T05:54:32.619Z,7.70
2022-10-26T05:55:37.438Z,8.48
2022-10-26T05:56:40.377Z,7.20
2022-10-26T05:57:46.195Z,6.32
2022-10-26T05:58:48.759Z,7.28
2022-10-26T05:59:51.414Z,6.28
2022-10-26T06:01:22.430Z,8.00
2022-10-26T06:02:39.620Z,8.00
2022-10-26T06:03:59.359Z,9.57
2022-10-26T06:05:05.811Z,8.50
2022-10-26T06:06:10.097Z,9.40
2022-10-26T06:07:14.374Z,9.38
2022-10-26T06:08:17.362Z,7.50
2022-10-26T06:09:20.070Z,9.60
2022-10-26T06:10:21.879Z,7.68
2022-10-26T06:11:25.014Z,9.40
2022-10-26T06:12:27.041Z,8.20
2022-10-26T06:13:31.692Z,7.13
2022-10-26T06:14:35.598Z,9.05
2022-10-26T06:15:58.174Z,9.13
2022-10-26T06:17:18.176Z,9.15
2022-10-26T06:18:40.845Z,10.00
2022-10-26T06:19:46.962Z,7.32
2022-10-26T06:21:09.809Z,8.02
2022-10-26T07:11:08.883Z,9.50
2022-10-26T07:18:47.366Z,6.85
2022-10-26T07:22:52.004Z,9.18
2022-10-26T07:24:32.869Z,9.73
2022-10-26T07:25:54.934Z,8.10
2022-10-26T07:32:30.363Z,13.23
2022-10-26T07:34:54.393Z,9.85
2022-10-26T07:36:30.945Z,8.43
2022-10-26T07:37:36.240Z,13.27
2022-10-26T07:38:41.303Z,8.40
2022-10-26T07:40:08.723Z,8.85
2022-10-26T07:41:11.727Z,8.07
2022-10-26T07:42:19.209Z,8.48
2022-10-26T07:43:54.131Z,9.85
2022-10-26T07:44:58.692Z,9.00
2022-10-26T07:46:00.910Z,7.25
2022-10-26T07:47:08.054Z,12.27
2022-10-26T07:48:14.752Z,10.77
2022-10-26T07:49:23.751Z,11.10
2022-10-26T07:50:27.712Z,12.82
2022-10-26T07:51:31.214Z,15.95
2022-10-26T07:52:34.599Z,13.00
2022-10-26T07:53:38.132Z,16.98
2022-10-26T07:54:41.251Z,9.48
2022-10-26T07:55:46.110Z,13.40
2022-10-26T07:56:54.379Z,10.43
2022-10-26T07:57:57.111Z,11.68
2022-10-26T07:59:10.790Z,12.57
2022-10-26T08:00:16.211Z,12.82
2022-10-26T08:01:19.983Z,10.73
2022-10-26T08:02:22.015Z,10.50
2022-10-26T08:03:24.090Z,9.27
2022-10-26T08:04:26.052Z,8.55
2022-10-26T08:06:37.472Z,8.55
2022-10-26T08:07:46.827Z,8.77
2022-10-26T08:09:01.901Z,6.50
2022-10-26T08:10:12.870Z,7.78
2022-10-26T08:11:23.263Z,8.05
2022-10-26T08:12:27.910Z,7.32
2022-10-26T08:13:36.778Z,8.27
2022-10-26T08:14:38.829Z,8.10
2022-10-26T08:15:42.170Z,10.60
2022-10-26T08:16:46.098Z,9.80
2022-10-26T08:18:11.369Z,8.98
2022-10-26T08:19:24.631Z,10.95
2022-10-26T08:20:58.773Z,8.80
2022-10-26T08:23:10.341Z,10.15
2022-10-26T08:24:13.334Z,6.95
2022-10-26T08:25:21.443Z,11.63
2022-10-26T08:26:24.025Z,14.07
2022-10-26T08:27:27.045Z,10.60
2022-10-26T08:28:34.194Z,9.07
2022-10-26T08:29:40.370Z,11.10
2022-10-26T08:30:48.351Z,12.75
2022-10-26T08:31:58.589Z,10.20
2022-10-26T08:33:11.152Z,9.90
2022-10-26T08:34:21.669Z,8.90
2022-10-26T08:35:28.527Z,9.35
2022-10-26T08:36:34.361Z,8.63
2022-10-26T08:37:36.922Z,8.52
2022-10-26T08:39:14.169Z,8.15
2022-10-26T08:40:27.458Z,8.50
2022-10-26T08:42:00.387Z,9.38
2022-10-26T08:43:29.407Z,8.30
2022-10-26T08:44:45.267Z,10.10
2022-10-26T08:45:53.690Z,8.63
2022-10-26T08:47:10.646Z,10.10
2022-10-26T08:48:20.488Z,10.27
2022-10-26T08:50:00.967Z,8.93
2022-10-26T08:51:25.126Z,10.95
2022-10-26T08:52:34.289Z,9.68
2022-10-26T08:54:10.986Z,9.02
2022-10-26T08:55:29.118Z,8.00
2022-10-26T08:56:50.985Z,8.23
2022-10-26T08:57:55.407Z,11.60
2022-10-26T08:59:21.846Z,10.60
2022-10-26T09:00:33.026Z,9.32
2022-10-26T09:01:35.015Z,8.57
2022-10-26T09:02:38.178Z,8.13
2022-10-26T09:03:48.848Z,6.93
2022-10-26T09:04:55.379Z,10.35
2022-10-26T09:06:25.725Z,9.80
2022-10-26T09:08:08.448Z,10.30
2022-10-26T09:09:29.686Z,9.88
2022-10-26T09:11:07.007Z,8.48
2022-10-26T09:12:25.564Z,8.82
2022-10-26T09:13:59.022Z,9.60
2022-10-26T09:15:25.608Z,8.95
2022-10-26T09:17:02.594Z,8.68
2022-10-26T09:18:28.322Z,9.50
2022-10-26T09:20:24.893Z,6.90
2022-10-26T09:21:26.744Z,9.93
2022-10-26T09:22:45.695Z,8.40
2022-10-26T09:26:12.978Z,7.78
2022-10-26T09:27:25.383Z,7.43
2022-10-26T09:28:39.058Z,9.02
2022-10-26T09:30:06.327Z,8.30
2022-10-26T09:31:15.304Z,10.80
2022-10-26T09:32:28.044Z,8.43
2022-10-26T09:35:03.717Z,8.95
2022-10-26T09:36:16.946Z,8.07
2022-10-26T09:37:39.123Z,10.02
2022-10-26T09:39:19.295Z,8.82
2022-10-26T09:41:20.048Z,11.35
2022-10-26T09:42:41.203Z,10.50
2022-10-26T09:44:00.359Z,11.07
2022-10-26T09:45:18.008Z,9.85
2022-10-26T09:46:49.097Z,9.03
2022-10-26T09:49:11.838Z,8.00
2022-10-26T09:51:15.654Z,8.93
2022-10-26T09:52:55.004Z,10.57
2022-10-26T09:54:18.892Z,8.25
2022-10-26T09:55:27.060Z,6.93
2022-10-26T09:56:30.416Z,8.13
2022-10-26T09:59:16.016Z,7.20
2022-10-26T10:00:21.561Z,8.32
2022-10-26T10:01:36.835Z,8.33
2022-10-26T10:02:48.942Z,7.15
2022-10-26T10:04:12.943Z,10.57
2022-10-26T10:05:52.771Z,8.23
2022-10-26T10:09:12.552Z,7.10
2022-10-26T10:10:36.586Z,8.35
2022-10-26T10:12:01.617Z,7.70
2022-10-26T10:13:26.779Z,13.25
2022-10-26T10:15:09.741Z,14.43
2022-10-26T10:16:45.365Z,10.43
2022-10-26T10:19:48.764Z,10.75
2022-10-26T10:21:55.839Z,11.80
2022-10-26T10:23:56.469Z,8.90
2022-10-26T10:32:07.555Z,9.75
2022-10-26T10:33:19.665Z,12.18
2022-10-26T10:34:22.548Z,21.17
2022-10-26T10:35:40.045Z,18.88
2022-10-26T10:36:55.607Z,13.02
2022-10-26T10:38:09.367Z,13.43
2022-10-26T10:39:37.914Z,13.70
2022-10-26T10:40:55.258Z,13.00
2022-10-26T10:42:48.627Z,14.20
2022-10-26T10:44:18.187Z,10.90
2022-10-26T10:45:39.736Z,9.95
2022-10-26T10:46:49.733Z,12.25
2022-10-26T10:48:01.628Z,10.55
2022-10-26T10:49:11.576Z,11.27
2022-10-26T10:50:15.019Z,10.82
2022-10-26T10:51:21.661Z,15.82
2022-10-26T10:52:29.104Z,13.50
2022-10-26T10:53:50.218Z,12.75
2022-10-26T10:55:10.499Z,12.75
2022-10-26T10:56:37.295Z,14.07
2022-10-26T10:57:51.328Z,10.10
2022-10-26T10:59:25.370Z,10.68
2022-10-26T11:00:28.037Z,14.10
2022-10-26T11:01:40.831Z,11.85
2022-10-26T11:02:45.204Z,10.57
2022-10-26T11:03:58.152Z,12.52
2022-10-26T11:05:22.030Z,12.40
2022-10-26T11:06:35.458Z,12.50
2022-10-26T11:07:47.983Z,12.60
2022-10-26T11:09:02.585Z,12.52
2022-10-26T11:10:04.597Z,11.20
2022-10-26T11:11:24.180Z,9.57
2022-10-26T11:12:41.602Z,11.43
2022-10-26T11:13:51.482Z,12.65
2022-10-26T11:14:57.397Z,11.18
2022-10-26T11:16:02.937Z,10.63
2022-10-26T11:19:18.037Z,11.60
2022-10-26T11:20:22.728Z,10.48
2022-10-26T11:24:43.351Z,11.65
2022-10-26T11:25:46.761Z,11.00
2022-10-26T11:27:07.677Z,11.35
2022-10-26T11:28:18.498Z,11.70
2022-10-26T11:29:43.512Z,10.15
2022-10-26T11:30:58.393Z,10.80
2022-10-26T11:32:21.184Z,10.50
2022-10-26T11:33:37.757Z,10.18
2022-10-26T11:35:01.378Z,9.20
2022-10-26T11:36:06.936Z,10.32
2022-10-26T11:37:23.196Z,9.85
2022-10-26T11:38:56.008Z,11.98
2022-10-26T11:40:07.685Z,11.68
2022-10-26T11:41:21.409Z,10.15
2022-10-26T11:42:43.883Z,9.95
2022-10-26T11:44:01.637Z,10.95
2022-10-26T11:45:22.431Z,10.63
2022-10-26T11:46:45.073Z,11.30
2022-10-26T11:47:52.435Z,11.32
2022-10-26T11:49:12.473Z,9.55
2022-10-26T11:50:33.586Z,11.15
2022-10-26T11:51:42.556Z,12.43
2022-10-26T11:52:54.846Z,10.27
2022-10-26T11:53:58.028Z,10.23
2022-10-26T11:55:07.236Z,11.55
2022-10-26T11:56:13.293Z,12.00
2022-10-26T11:57:19.227Z,12.30
2022-10-26T11:58:25.965Z,15.00
2022-10-26T11:59:33.074Z,12.10
2022-10-26T12:00:40.290Z,9.00
2022-10-26T12:01:42.117Z,7.67
2022-10-26T12:02:46.843Z,9.73
2022-10-26T12:03:55.775Z,9.38
2022-10-26T12:05:03.679Z,8.85
2022-10-26T12:06:06.578Z,10.00
2022-10-26T12:07:13.081Z,8.57
2022-10-26T12:08:33.418Z,8.00
2022-10-26T12:09:40.250Z,12.82
2022-10-26T12:10:44.975Z,9.38
2022-10-26T12:12:08.194Z,10.75
2022-10-26T12:13:33.578Z,8.82
2022-10-26T12:14:53.543Z,10.15
2022-10-26T12:16:11.182Z,11.02
2022-10-26T12:17:31.415Z,12.68
2022-10-26T12:18:57.049Z,11.93
2022-10-26T12:20:11.097Z,12.60
2022-10-26T12:21:13.969Z,10.55
2022-10-26T12:22:17.551Z,10.68
2022-10-26T12:23:33.808Z,12.07
2022-10-26T12:24:45.745Z,13.55
2022-10-26T12:25:47.755Z,9.48
2022-10-26T12:27:10.327Z,10.18
2022-10-26T12:28:31.744Z,24.92
2022-10-26T12:29:52.250Z,10.57
2022-10-26T12:31:16.571Z,10.05
2022-10-26T12:32:33.110Z,11.13
2022-10-26T12:33:48.686Z,12.57
2022-10-26T12:34:54.928Z,8.65
2022-10-26T12:35:56.339Z,9.77
2022-10-26T12:36:59.198Z,15.60
2022-10-26T12:38:35.229Z,10.60
2022-10-26T12:39:38.276Z,11.00
2022-10-26T12:40:41.960Z,11.77
2022-10-26T12:41:55.028Z,13.32
2022-10-26T12:42:56.934Z,11.40
2022-10-26T12:44:06.228Z,12.27
2022-10-26T12:45:19.644Z,14.35
2022-10-26T12:46:30.044Z,11.70
2022-10-26T12:47:34.334Z,11.05
2022-10-26T12:48:49.956Z,15.77
2022-10-26T12:50:12.521Z,12.80
2022-10-26T12:51:23.520Z,11.53
2022-10-26T12:52:30.693Z,15.70
2022-10-26T12:53:33.041Z,10.07
2022-10-26T12:54:34.720Z,11.87
2022-10-26T12:55:54.998Z,10.27
2022-10-26T12:57:18.298Z,11.63
2022-10-26T12:58:31.903Z,12.82
2022-10-26T12:59:53.926Z,10.98
2022-10-26T13:00:55.843Z,10.77
2022-10-26T13:02:18.459Z,11.23
2022-10-26T13:03:22.358Z,12.00
2022-10-26T13:04:45.299Z,12.57
2022-10-26T13:06:21.739Z,12.85
2022-10-26T13:07:34.965Z,12.57
2022-10-26T13:08:59.049Z,12.88
2022-10-26T13:10:25.636Z,12.32
2022-10-26T13:11:32.462Z,14.13
2022-10-26T13:12:56.936Z,12.05
2022-10-26T13:14:00.431Z,12.15
2022-10-26T13:15:07.730Z,11.13
2022-10-26T13:16:12.291Z,12.32
2022-10-26T13:17:25.871Z,12.43
2022-10-26T13:18:29.754Z,11.82
2022-10-26T13:19:38.386Z,13.70
2022-10-26T13:21:03.823Z,10.88
2022-10-26T13:22:07.254Z,11.43
2022-10-26T13:23:19.678Z,12.85
2022-10-26T13:24:29.950Z,13.80
2022-10-26T13:25:34.553Z,13.45
2022-10-26T13:26:57.578Z,13.32
2022-10-26T13:27:59.907Z,11.05
2022-10-26T13:29:03.668Z,13.55
2022-10-26T13:30:24.626Z,12.65
2022-10-26T13:31:32.963Z,13.93
2022-10-26T13:32:45.190Z,16.08
2022-10-26T13:33:47.360Z,14.02
2022-10-26T13:34:52.977Z,13.90
2022-10-26T13:35:58.782Z,14.18
2022-10-26T13:37:20.857Z,13.60
2022-10-26T13:38:25.685Z,13.98
2022-10-26T13:39:29.159Z,13.18
2022-10-26T13:40:33.542Z,10.38
2022-10-26T13:41:38.481Z,12.07
2022-10-26T13:42:51.896Z,11.75
2022-10-26T13:43:54.426Z,9.63
2022-10-26T13:44:58.812Z,10.77
2022-10-26T13:46:04.085Z,10.13
2022-10-26T13:47:34.668Z,9.82
2022-10-26T13:48:56.671Z,11.43
2022-10-26T13:50:04.146Z,11.15
2022-10-26T13:51:12.936Z,8.65
2022-10-26T13:52:19.101Z,9.27
2022-10-26T13:53:29.319Z,8.30
2022-10-26T13:54:50.013Z,13.57
2022-10-26T13:56:16.191Z,9.10
2022-10-26T13:57:39.414Z,9.70
2022-10-26T13:58:45.203Z,8.90
2022-10-26T13:59:49.522Z,11.95
2022-10-26T14:01:10.332Z,8.23
2022-10-26T14:02:26.282Z,11.33
2022-10-26T14:03:29.735Z,10.88
2022-10-26T14:04:31.834Z,7.82
2022-10-26T14:05:34.789Z,9.02
2022-10-26T14:06:49.634Z,8.03
2022-10-26T14:08:03.930Z,9.70
2022-10-26T14:09:12.201Z,8.57
2022-10-26T14:10:32.459Z,12.82
2022-10-26T14:12:07.186Z,8.20
2022-10-26T14:13:10.932Z,10.77
2022-10-26T14:14:33.811Z,10.10
2022-10-26T14:15:38.994Z,9.65
2022-10-26T14:16:47.583Z,9.52
2022-10-26T14:17:52.562Z,8.85
2022-10-26T14:18:57.787Z,9.80
2022-10-26T14:20:02.413Z,9.48
2022-10-26T14:21:18.374Z,9.18
2022-10-26T14:22:46.926Z,10.70
2022-10-26T14:23:51.830Z,9.77
2022-10-26T14:26:38.779Z,8.25
2022-10-26T14:27:40.394Z,11.45
2022-10-26T14:28:47.566Z,9.20
2022-10-26T14:30:20.379Z,8.40
2022-10-26T14:31:37.349Z,7.93
2022-10-26T14:32:40.118Z,9.10
2022-10-26T14:33:42.118Z,10.80
2022-10-26T14:34:44.986Z,8.73
2022-10-26T14:35:47.645Z,8.70
2022-10-26T14:36:58.210Z,12.57
2022-10-26T14:38:08.952Z,8.38
2022-10-26T14:39:31.600Z,8.80
2022-10-26T14:40:37.403Z,9.98
2022-10-26T14:42:42.162Z,9.45
2022-10-26T14:43:47.230Z,7.15
2022-10-26T14:44:48.879Z,8.07
2022-10-26T14:45:52.532Z,7.93
2022-10-26T14:47:01.914Z,8.23
2022-10-26T14:48:07.147Z,9.02
2022-10-26T14:49:19.566Z,10.43
2022-10-26T14:50:33.775Z,11.10
2022-10-26T14:51:37.393Z,10.20
2022-10-26T14:52:39.939Z,11.55
2022-10-26T14:53:47.729Z,9.80
2022-10-26T14:55:07.908Z,8.85
2022-10-26T14:56:31.185Z,10.68
2022-10-26T14:57:35.126Z,9.73
2022-10-26T14:58:37.624Z,9.13
2022-10-26T14:59:39.032Z,10.95
2022-10-26T15:00:46.051Z,7.70
2022-10-26T15:01:58.371Z,8.65
2022-10-26T15:03:03.373Z,10.02
2022-10-26T15:04:07.724Z,11.10
2022-10-26T15:05:21.734Z,10.60
2022-10-26T15:06:41.808Z,13.00
2022-10-26T15:07:45.238Z,13.35
2022-10-26T15:08:56.066Z,14.40
2022-10-26T15:09:58.847Z,12.20
2022-10-26T15:11:16.214Z,12.25
2022-10-26T15:12:32.664Z,15.15
2022-10-26T15:13:36.282Z,15.25
2022-10-26T15:14:42.610Z,15.07
2022-10-26T15:15:58.058Z,15.85
2022-10-26T15:17:00.278Z,16.73
2022-10-26T15:18:12.412Z,17.08
2022-10-26T15:19:16.136Z,13.77
2022-10-26T15:20:24.746Z,14.77
2022-10-26T15:21:32.224Z,14.20
2022-10-26T15:22:35.985Z,16.30
2022-10-26T15:23:38.798Z,16.15
2022-10-26T15:24:41.064Z,12.70
2022-10-26T15:25:50.322Z,12.98
2022-10-26T15:26:52.729Z,14.10
2022-10-26T15:27:54.960Z,14.82
2022-10-26T15:28:59.139Z,13.27
2022-10-26T15:30:19.229Z,14.43
2022-10-26T15:31:41.356Z,10.82
2022-10-26T15:32:45.138Z,10.10
2022-10-26T15:33:57.487Z,11.98
2022-10-26T15:35:18.197Z,13.30
2022-10-26T15:36:27.812Z,11.45
2022-10-26T15:37:32.148Z,13.07
2022-10-26T15:38:34.469Z,10.50
2022-10-26T15:39:35.910Z,10.18
2022-10-26T15:40:42.488Z,12.43
2022-10-26T15:41:49.159Z,11.43
2022-10-26T15:42:54.799Z,10.73
2022-10-26T15:44:01.802Z,10.23
2022-10-26T15:45:05.267Z,11.07
2022-10-26T15:46:07.128Z,15.00
2022-10-26T15:47:19.019Z,10.15
2022-10-26T15:48:40.617Z,12.60
2022-10-26T15:49:43.847Z,10.70
2022-10-26T15:50:46.000Z,10.95
2022-10-26T15:51:48.827Z,8.93
2022-10-26T15:53:00.128Z,7.70
2022-10-26T15:54:07.466Z,9.63
2022-10-26T15:55:09.121Z,9.85
2022-10-26T15:56:16.743Z,8.40
2022-10-26T15:57:20.717Z,9.48
2022-10-26T15:58:23.995Z,8.30
2022-10-26T15:59:26.268Z,9.75
2022-10-26T16:00:29.202Z,12.35
2022-10-26T16:01:31.496Z,11.23
2022-10-26T16:02:35.592Z,13.38
2022-10-26T16:03:40.517Z,11.52
2022-10-26T16:04:43.253Z,11.95
2022-10-26T16:05:47.173Z,12.30
2022-10-26T16:06:49.930Z,11.52
2022-10-26T16:07:52.354Z,11.25
2022-10-26T16:08:57.018Z,11.43
2022-10-26T16:09:59.026Z,11.98
2022-10-26T16:11:03.199Z,10.38
2022-10-26T16:12:05.422Z,10.98
2022-10-26T16:13:12.304Z,9.90
2022-10-26T16:14:13.866Z,11.07
2022-10-26T16:15:19.530Z,9.85
2022-10-26T16:16:21.950Z,10.98
2022-10-26T16:17:25.245Z,12.93
2022-10-26T16:18:28.669Z,11.23
2022-10-26T16:19:32.713Z,9.50
2022-10-26T16:20:37.681Z,8.02
2022-10-26T16:21:41.727Z,10.20
2022-10-26T16:22:51.251Z,8.82
2022-10-26T16:23:55.059Z,11.10
2022-10-26T16:24:59.180Z,8.13
2022-10-26T16:26:00.520Z,9.02
2022-10-26T16:27:01.909Z,10.45
2022-10-26T16:28:07.101Z,8.88
2022-10-26T16:29:09.902Z,9.18
2022-10-26T16:30:13.051Z,8.85
2022-10-26T16:31:17.135Z,8.07
2022-10-26T16:32:19.740Z,12.60
2022-10-26T16:33:22.861Z,10.83
2022-10-26T16:34:32.364Z,10.30
2022-10-26T16:35:33.957Z,9.88
2022-10-26T16:36:40.484Z,10.95
2022-10-26T16:37:42.167Z,8.98
2022-10-26T16:38:43.654Z,11.05
2022-10-26T16:39:49.073Z,8.95
2022-10-26T16:40:51.308Z,8.48
2022-10-26T16:41:53.013Z,9.35
2022-10-26T16:42:54.889Z,10.97
2022-10-26T16:43:57.078Z,8.65
2022-10-26T16:45:02.557Z,10.07
2022-10-26T16:46:08.106Z,13.50